sensor_id;sensor_type;location;lat;lon;timestamp;pressure;altitude;pressure_sealevel;temperature;humidity
12475;BME280;6302;42.624;23.334;2022-10-22T00:02:04;94111.16;;;7.88;100.00
12475;BME280;6302;42.624;23.334;2022-10-22T00:04:32;94116.84;;;7.90;100.00
12475;BME280;6302;42.624;23.334;2022-10-22T00:06:59;94111.25;;;7.95;100.00
12475;BME280;6302;42.624;23.334;2022-10-22T00:09:25;94100.19;;;7.86;100.00
12475;BME280;6302;42.624;23.334;2022-10-22T00:11:52;94105.69;;;8.00;100.00
12475;BME280;6302;42.624;23.334;2022-10-22T00:14:19;94113.25;;;8.02;100.00
12475;BME280;6302;42.624;23.334;2022-10-22T00:16:46;94112.50;;;8.01;100.00
12475;BME280;6302;42.624;23.334;2022-10-22T00:19:14;94105.69;;;8.00;100.00
12475;BME280;6302;42.624;23.334;2022-10-22T00:21:41;94114.38;;;8.01;100.00
12475;BME280;6302;42.624;23.334;2022-10-22T00:24:07;94117.38;;;7.99;100.00
12475;BME280;6302;42.624;23.334;2022-10-22T00:26:34;94114.72;;;7.99;100.00
12475;BME280;6302;42.624;23.334;2022-10-22T00:29:01;94107.44;;;7.93;100.00
12475;BME280;6302;42.624;23.334;2022-10-22T00:31:28;94115.03;;;7.94;100.00
12475;BME280;6302;42.624;23.334;2022-10-22T00:33:55;94101.84;;;7.94;100.00
12475;BME280;6302;42.624;23.334;2022-10-22T00:36:23;94095.03;;;7.93;100.00
12475;BME280;6302;42.624;23.334;2022-10-22T00:38:49;94087.41;;;7.88;100.00
12475;BME280;6302;42.624;23.334;2022-10-22T00:41:16;94071.44;;;7.77;100.00
12475;BME280;6302;42.624;23.334;2022-10-22T00:43:54;94092.28;;;7.86;100.00
12475;BME280;6302;42.624;23.334;2022-10-22T00:46:21;94086.22;;;7.82;100.00
12475;BME280;6302;42.624;23.334;2022-10-22T00:48:48;94082.41;;;7.79;100.00
12475;BME280;6302;42.624;23.334;2022-10-22T00:51:16;94096.41;;;7.83;100.00
12475;BME280;6302;42.624;23.334;2022-10-22T00:53:47;94096.78;;;7.85;100.00
12475;BME280;6302;42.624;23.334;2022-10-22T00:56:15;94108.88;;;7.86;100.00
12475;BME280;6302;42.624;23.334;2022-10-22T00:58:44;94091.09;;;7.80;100.00
12475;BME280;6302;42.624;23.334;2022-10-22T01:01:15;94084.97;;;7.76;100.00
12475;BME280;6302;42.624;23.334;2022-10-22T01:03:44;94088.00;;;7.78;100.00
12475;BME280;6302;42.624;23.334;2022-10-22T01:06:15;94089.47;;;7.75;100.00
12475;BME280;6302;42.624;23.334;2022-10-22T01:08:48;94073.22;;;7.70;100.00
12475;BME280;6302;42.624;23.334;2022-10-22T01:11:22;94060.63;;;7.60;100.00
12475;BME280;6302;42.624;23.334;2022-10-22T01:13:57;94067.06;;;7.62;100.00
12475;BME280;6302;42.624;23.334;2022-10-22T01:16:33;94055.75;;;7.62;100.00
12475;BME280;6302;42.624;23.334;2022-10-22T01:19:14;94050.06;;;7.60;100.00
12475;BME280;6302;42.624;23.334;2022-10-22T01:21:51;94040.22;;;7.57;100.00
12475;BME280;6302;42.624;23.334;2022-10-22T01:24:33;94056.81;;;7.57;100.00
12475;BME280;6302;42.624;23.334;2022-10-22T01:27:27;94045.09;;;7.55;100.00
12475;BME280;6302;42.624;23.334;2022-10-22T01:30:01;94050.69;;;7.53;100.00
12475;BME280;6302;42.624;23.334;2022-10-22T01:32:30;94046.88;;;7.51;100.00
12475;BME280;6302;42.624;23.334;2022-10-22T01:35:00;94040.03;;;7.46;100.00
12475;BME280;6302;42.624;23.334;2022-10-22T01:37:31;94038.53;;;7.45;100.00
12475;BME280;6302;42.624;23.334;2022-10-22T01:40:00;94026.81;;;7.43;100.00
12475;BME280;6302;42.624;23.334;2022-10-22T01:42:28;94030.63;;;7.45;100.00
12475;BME280;6302;42.624;23.334;2022-10-22T01:44:54;93916.41;;;6.66;100.00
12475;BME280;6302;42.624;23.334;2022-10-22T01:47:32;94020.00;;;7.42;100.00
12475;BME280;6302;42.624;23.334;2022-10-22T01:50:23;94026.34;;;7.37;100.00
12475;BME280;6302;42.624;23.334;2022-10-22T01:53:06;93957.38;;;6.86;100.00
12475;BME280;6302;42.624;23.334;2022-10-22T01:55:42;94034.63;;;7.36;100.00
12475;BME280;6302;42.624;23.334;2022-10-22T01:58:21;94016.75;;;7.26;100.00
12475;BME280;6302;42.624;23.334;2022-10-22T02:00:58;94024.59;;;7.22;100.00
12475;BME280;6302;42.624;23.334;2022-10-22T02:03:34;94034.50;;;7.29;100.00
12475;BME280;6302;42.624;23.334;2022-10-22T02:06:10;94020.03;;;7.19;100.00
12475;BME280;6302;42.624;23.334;2022-10-22T02:08:40;94032.63;;;7.29;100.00
12475;BME280;6302;42.624;23.334;2022-10-22T02:11:07;94032.97;;;7.28;100.00
12475;BME280;6302;42.624;23.334;2022-10-22T02:13:38;94023.84;;;7.21;100.00
12475;BME280;6302;42.624;23.334;2022-10-22T02:16:10;94040.19;;;7.31;100.00
12475;BME280;6302;42.624;23.334;2022-10-22T02:18:42;94033.03;;;7.31;100.00
12475;BME280;6302;42.624;23.334;2022-10-22T02:21:11;94026.94;;;7.27;100.00
12475;BME280;6302;42.624;23.334;2022-10-22T02:23:38;94030.75;;;7.30;100.00
12475;BME280;6302;42.624;23.334;2022-10-22T02:26:10;94026.19;;;7.27;100.00
12475;BME280;6302;42.624;23.334;2022-10-22T02:28:58;94017.88;;;7.25;100.00
12475;BME280;6302;42.624;23.334;2022-10-22T02:31:31;94006.91;;;7.22;100.00
12475;BME280;6302;42.624;23.334;2022-10-22T02:34:08;94016.00;;;7.25;100.00
12475;BME280;6302;42.624;23.334;2022-10-22T02:36:39;94026.88;;;7.23;100.00
12475;BME280;6302;42.624;23.334;2022-10-22T02:39:08;94036.72;;;7.27;100.00
12475;BME280;6302;42.624;23.334;2022-10-22T02:41:37;94042.84;;;7.31;100.00
12475;BME280;6302;42.624;23.334;2022-10-22T02:44:07;94048.50;;;7.33;100.00
12475;BME280;6302;42.624;23.334;2022-10-22T02:46:35;94045.88;;;7.33;100.00
12475;BME280;6302;42.624;23.334;2022-10-22T02:49:04;94045.88;;;7.33;100.00
12475;BME280;6302;42.624;23.334;2022-10-22T02:51:31;94047.38;;;7.34;100.00
12475;BME280;6302;42.624;23.334;2022-10-22T02:53:58;94037.41;;;7.23;100.00
12475;BME280;6302;42.624;23.334;2022-10-22T02:56:24;94049.59;;;7.32;100.00
12475;BME280;6302;42.624;23.334;2022-10-22T02:58:51;94041.28;;;7.30;100.00
12475;BME280;6302;42.624;23.334;2022-10-22T03:01:18;94049.91;;;7.27;100.00
12475;BME280;6302;42.624;23.334;2022-10-22T03:03:45;94044.22;;;7.25;100.00
12475;BME280;6302;42.624;23.334;2022-10-22T03:06:13;94044.50;;;7.19;100.00
12475;BME280;6302;42.624;23.334;2022-10-22T03:08:40;94041.88;;;7.19;100.00
12475;BME280;6302;42.624;23.334;2022-10-22T03:11:07;94033.84;;;7.12;100.00
12475;BME280;6302;42.624;23.334;2022-10-22T03:13:33;94045.22;;;7.16;100.00
12475;BME280;6302;42.624;23.334;2022-10-22T03:16:00;94047.09;;;7.16;100.00
12475;BME280;6302;42.624;23.334;2022-10-22T03:18:27;94046.34;;;7.15;100.00
12475;BME280;6302;42.624;23.334;2022-10-22T03:21:08;94041.06;;;7.15;100.00
12475;BME280;6302;42.624;23.334;2022-10-22T03:23:37;94040.31;;;7.15;100.00
12475;BME280;6302;42.624;23.334;2022-10-22T03:26:06;94042.13;;;7.11;100.00
12475;BME280;6302;42.624;23.334;2022-10-22T03:28:34;94015.81;;;6.92;100.00
12475;BME280;6302;42.624;23.334;2022-10-22T03:31:01;94028.81;;;7.04;100.00
12475;BME280;6302;42.624;23.334;2022-10-22T03:33:28;94032.56;;;7.03;100.00
12475;BME280;6302;42.624;23.334;2022-10-22T03:35:55;94030.22;;;6.98;100.00
12475;BME280;6302;42.624;23.334;2022-10-22T03:38:22;94034.03;;;7.00;100.00
12475;BME280;6302;42.624;23.334;2022-10-22T03:40:50;94031.81;;;7.02;100.00
12475;BME280;6302;42.624;23.334;2022-10-22T03:43:17;94032.16;;;7.01;100.00
12475;BME280;6302;42.624;23.334;2022-10-22T03:45:44;94021.97;;;6.99;100.00
12475;BME280;6302;42.624;23.334;2022-10-22T03:48:11;94020.09;;;7.00;100.00
12475;BME280;6302;42.624;23.334;2022-10-22T03:50:38;93996.91;;;6.86;100.00
12475;BME280;6302;42.624;23.334;2022-10-22T03:53:04;94016.28;;;6.97;100.00
12475;BME280;6302;42.624;23.334;2022-10-22T03:55:34;94008.66;;;6.92;100.00
12475;BME280;6302;42.624;23.334;2022-10-22T03:58:04;94031.00;;;6.98;100.00
12475;BME280;6302;42.624;23.334;2022-10-22T04:00:31;94041.94;;;7.00;100.00
12475;BME280;6302;42.624;23.334;2022-10-22T04:02:58;94043.03;;;6.99;100.00
12475;BME280;6302;42.624;23.334;2022-10-22T04:05:25;94040.75;;;6.98;100.00
12475;BME280;6302;42.624;23.334;2022-10-22T04:07:51;94045.25;;;6.97;100.00
12475;BME280;6302;42.624;23.334;2022-10-22T04:10:19;94025.72;;;6.98;100.00
12475;BME280;6302;42.624;23.334;2022-10-22T04:12:46;94011.78;;;6.98;100.00
12475;BME280;6302;42.624;23.334;2022-10-22T04:15:15;94015.63;;;7.04;100.00
12475;BME280;6302;42.624;23.334;2022-10-22T04:17:42;94006.91;;;7.00;100.00
12475;BME280;6302;42.624;23.334;2022-10-22T04:20:10;94017.94;;;7.05;100.00
12475;BME280;6302;42.624;23.334;2022-10-22T04:22:39;94016.81;;;7.06;100.00
12475;BME280;6302;42.624;23.334;2022-10-22T04:25:06;94010.84;;;7.09;100.00
12475;BME280;6302;42.624;23.334;2022-10-22T04:27:33;94008.97;;;7.10;100.00
12475;BME280;6302;42.624;23.334;2022-10-22T04:30:01;94009.78;;;7.14;100.00
12475;BME280;6302;42.624;23.334;2022-10-22T04:32:29;94002.63;;;7.14;100.00
12475;BME280;6302;42.624;23.334;2022-10-22T04:34:56;93998.16;;;7.18;100.00
12475;BME280;6302;42.624;23.334;2022-10-22T04:37:23;94011.78;;;7.20;100.00
12475;BME280;6302;42.624;23.334;2022-10-22T04:39:49;94017.88;;;7.25;100.00
12475;BME280;6302;42.624;23.334;2022-10-22T04:42:16;94018.66;;;7.29;100.00
12475;BME280;6302;42.624;23.334;2022-10-22T04:44:43;94022.53;;;7.35;100.00
12475;BME280;6302;42.624;23.334;2022-10-22T04:47:10;93961.34;;;6.99;100.00
12475;BME280;6302;42.624;23.334;2022-10-22T04:49:40;94019.31;;;7.45;100.00
12475;BME280;6302;42.624;23.334;2022-10-22T04:52:07;94009.94;;;7.47;100.00
12475;BME280;6302;42.624;23.334;2022-10-22T04:54:34;94014.84;;;7.49;100.00
12475;BME280;6302;42.624;23.334;2022-10-22T04:57:00;93992.78;;;7.34;100.00
12475;BME280;6302;42.624;23.334;2022-10-22T04:59:27;94015.25;;;7.51;100.00
12475;BME280;6302;42.624;23.334;2022-10-22T05:01:54;94024.75;;;7.55;100.00
12475;BME280;6302;42.624;23.334;2022-10-22T05:04:21;94027.03;;;7.57;100.00
12475;BME280;6302;42.624;23.334;2022-10-22T05:06:49;93974.59;;;7.26;100.00
12475;BME280;6302;42.624;23.334;2022-10-22T05:09:18;94026.06;;;7.68;100.00
12475;BME280;6302;42.624;23.334;2022-10-22T05:11:47;94026.13;;;7.72;100.00
12475;BME280;6302;42.624;23.334;2022-10-22T05:14:15;94031.09;;;7.77;100.00
12475;BME280;6302;42.624;23.334;2022-10-22T05:16:43;94038.19;;;7.73;100.00
12475;BME280;6302;42.624;23.334;2022-10-22T05:19:15;94012.28;;;7.52;100.00
12475;BME280;6302;42.624;23.334;2022-10-22T05:21:43;94050.63;;;7.72;100.00
12475;BME280;6302;42.624;23.334;2022-10-22T05:24:11;94056.34;;;7.78;100.00
12475;BME280;6302;42.624;23.334;2022-10-22T05:26:38;94043.47;;;7.73;100.00
12475;BME280;6302;42.624;23.334;2022-10-22T05:29:05;94057.53;;;7.80;100.00
12475;BME280;6302;42.624;23.334;2022-10-22T05:31:32;94039.41;;;7.79;100.00
12475;BME280;6302;42.624;23.334;2022-10-22T05:33:59;94036.00;;;7.78;100.00
12475;BME280;6302;42.624;23.334;2022-10-22T05:36:26;94044.00;;;7.82;100.00
12475;BME280;6302;42.624;23.334;2022-10-22T05:38:53;94046.66;;;7.85;100.00
12475;BME280;6302;42.624;23.334;2022-10-22T05:41:23;94012.38;;;7.59;100.00
12475;BME280;6302;42.624;23.334;2022-10-22T05:43:50;94050.06;;;7.86;100.00
12475;BME280;6302;42.624;23.334;2022-10-22T05:46:21;94028.84;;;7.79;100.00
12475;BME280;6302;42.624;23.334;2022-10-22T05:48:49;94046.00;;;7.92;100.00
12475;BME280;6302;42.624;23.334;2022-10-22T05:51:16;94033.84;;;7.84;100.00
12475;BME280;6302;42.624;23.334;2022-10-22T05:53:43;94040.38;;;7.94;100.00
12475;BME280;6302;42.624;23.334;2022-10-22T05:56:11;94049.22;;;8.05;100.00
12475;BME280;6302;42.624;23.334;2022-10-22T05:58:40;94056.09;;;8.13;100.00
12475;BME280;6302;42.624;23.334;2022-10-22T06:01:10;94016.16;;;7.88;100.00
12475;BME280;6302;42.624;23.334;2022-10-22T06:03:37;94047.81;;;8.14;100.00
12475;BME280;6302;42.624;23.334;2022-10-22T06:06:10;94043.72;;;8.17;100.00
12475;BME280;6302;42.624;23.334;2022-10-22T06:08:38;94069.91;;;8.29;100.00
12475;BME280;6302;42.624;23.334;2022-10-22T06:11:05;94064.66;;;8.32;100.00
12475;BME280;6302;42.624;23.334;2022-10-22T06:13:32;94054.09;;;8.32;100.00
12475;BME280;6302;42.624;23.334;2022-10-22T06:16:00;94043.22;;;8.37;100.00
12475;BME280;6302;42.624;23.334;2022-10-22T06:18:27;94054.69;;;8.48;100.00
12475;BME280;6302;42.624;23.334;2022-10-22T06:20:54;94062.78;;;8.63;100.00
12475;BME280;6302;42.624;23.334;2022-10-22T06:23:21;94061.03;;;8.74;100.00
12475;BME280;6302;42.624;23.334;2022-10-22T06:25:55;94071.34;;;8.86;100.00
12475;BME280;6302;42.624;23.334;2022-10-22T06:28:22;94071.09;;;8.98;100.00
12475;BME280;6302;42.624;23.334;2022-10-22T06:30:49;94076.47;;;9.05;100.00
12475;BME280;6302;42.624;23.334;2022-10-22T06:33:17;94068.84;;;9.00;100.00
12475;BME280;6302;42.624;23.334;2022-10-22T06:35:44;94068.53;;;9.05;100.00
12475;BME280;6302;42.624;23.334;2022-10-22T06:38:13;94074.59;;;9.09;100.00
12475;BME280;6302;42.624;23.334;2022-10-22T06:40:39;94082.28;;;9.21;100.00
12475;BME280;6302;42.624;23.334;2022-10-22T06:43:08;94086.53;;;9.29;100.00
12475;BME280;6302;42.624;23.334;2022-10-22T06:45:34;94088.72;;;9.24;100.00
12475;BME280;6302;42.624;23.334;2022-10-22T06:48:01;94075.50;;;9.24;100.00
12475;BME280;6302;42.624;23.334;2022-10-22T06:50:30;94066.44;;;9.25;100.00
12475;BME280;6302;42.624;23.334;2022-10-22T06:52:57;94079.44;;;9.40;100.00
12475;BME280;6302;42.624;23.334;2022-10-22T06:55:24;94079.50;;;9.47;100.00
12475;BME280;6302;42.624;23.334;2022-10-22T06:57:50;94078.03;;;9.53;100.00
12475;BME280;6302;42.624;23.334;2022-10-22T07:00:18;94072.41;;;9.55;100.00
12475;BME280;6302;42.624;23.334;2022-10-22T07:02:49;94081.53;;;9.64;100.00
12475;BME280;6302;42.624;23.334;2022-10-22T07:05:18;94092.13;;;9.68;100.00
12475;BME280;6302;42.624;23.334;2022-10-22T07:07:46;94085.03;;;9.75;100.00
12475;BME280;6302;42.624;23.334;2022-10-22T07:10:13;94098.66;;;9.77;100.00
12475;BME280;6302;42.624;23.334;2022-10-22T07:12:40;94089.69;;;9.89;100.00
12475;BME280;6302;42.624;23.334;2022-10-22T07:15:07;94080.66;;;10.01;100.00
12475;BME280;6302;42.624;23.334;2022-10-22T07:17:34;94076.19;;;10.05;100.00
12475;BME280;6302;42.624;23.334;2022-10-22T07:20:01;94072.41;;;10.09;100.00
12475;BME280;6302;42.624;23.334;2022-10-22T07:22:28;94070.13;;;10.08;100.00
12475;BME280;6302;42.624;23.334;2022-10-22T07:24:56;94073.25;;;10.17;100.00
12475;BME280;6302;42.624;23.334;2022-10-22T07:27:23;94068.03;;;10.31;100.00
12475;BME280;6302;42.624;23.334;2022-10-22T07:29:50;94071.13;;;10.47;100.00
12475;BME280;6302;42.624;23.334;2022-10-22T07:32:17;94077.22;;;10.55;100.00
12475;BME280;6302;42.624;23.334;2022-10-22T07:34:43;94062.03;;;10.41;100.00
12475;BME280;6302;42.624;23.334;2022-10-22T07:37:10;94076.16;;;10.66;100.00
12475;BME280;6302;42.624;23.334;2022-10-22T07:39:37;94072.34;;;10.67;100.00
12475;BME280;6302;42.624;23.334;2022-10-22T07:42:05;94077.69;;;10.74;100.00
12475;BME280;6302;42.624;23.334;2022-10-22T07:44:32;94075.03;;;10.81;100.00
12475;BME280;6302;42.624;23.334;2022-10-22T07:46:59;94060.31;;;10.87;100.00
12475;BME280;6302;42.624;23.334;2022-10-22T07:49:25;94063.75;;;10.98;100.00
12475;BME280;6302;42.624;23.334;2022-10-22T07:51:52;94060.75;;;11.03;100.00
12475;BME280;6302;42.624;23.334;2022-10-22T07:54:21;94050.91;;;11.15;100.00
12475;BME280;6302;42.624;23.334;2022-10-22T07:56:48;94049.03;;;11.26;100.00
12475;BME280;6302;42.624;23.334;2022-10-22T07:59:16;94048.63;;;11.31;100.00
12475;BME280;6302;42.624;23.334;2022-10-22T08:01:43;94046.00;;;11.41;100.00
12475;BME280;6302;42.624;23.334;2022-10-22T08:04:11;94044.50;;;11.51;100.00
12475;BME280;6302;42.624;23.334;2022-10-22T08:06:38;94031.59;;;11.46;100.00
12475;BME280;6302;42.624;23.334;2022-10-22T08:09:05;94066.91;;;11.67;100.00
12475;BME280;6302;42.624;23.334;2022-10-22T08:11:33;94071.84;;;11.76;100.00
12475;BME280;6302;42.624;23.334;2022-10-22T08:14:00;94038.81;;;11.63;100.00
12475;BME280;6302;42.624;23.334;2022-10-22T08:16:28;94060.84;;;11.81;100.00
12475;BME280;6302;42.624;23.334;2022-10-22T08:18:55;94053.25;;;11.90;100.00
12475;BME280;6302;42.624;23.334;2022-10-22T08:21:21;94052.47;;;11.93;100.00
12475;BME280;6302;42.624;23.334;2022-10-22T08:23:48;94053.25;;;11.97;100.00
12475;BME280;6302;42.624;23.334;2022-10-22T08:26:15;94049.06;;;12.07;100.00
12475;BME280;6302;42.624;23.334;2022-10-22T08:28:42;94042.94;;;12.20;100.00
12475;BME280;6302;42.624;23.334;2022-10-22T08:31:09;94044.47;;;12.21;100.00
12475;BME280;6302;42.624;23.334;2022-10-22T08:33:38;94040.28;;;12.24;100.00
12475;BME280;6302;42.624;23.334;2022-10-22T08:36:06;94047.84;;;12.32;100.00
12475;BME280;6302;42.624;23.334;2022-10-22T08:38:33;94032.66;;;12.44;100.00
12475;BME280;6302;42.624;23.334;2022-10-22T08:41:06;94047.78;;;12.61;100.00
12475;BME280;6302;42.624;23.334;2022-10-22T08:44:01;94051.53;;;12.67;100.00
12475;BME280;6302;42.624;23.334;2022-10-22T08:46:59;94050.00;;;12.73;100.00
12475;BME280;6302;42.624;23.334;2022-10-22T08:49:32;94042.78;;;12.73;100.00
12475;BME280;6302;42.624;23.334;2022-10-22T08:52:00;94053.72;;;12.93;100.00
12475;BME280;6302;42.624;23.334;2022-10-22T08:54:32;94049.16;;;12.86;100.00
12475;BME280;6302;42.624;23.334;2022-10-22T08:57:18;94043.03;;;13.00;100.00
12475;BME280;6302;42.624;23.334;2022-10-22T08:59:53;94047.19;;;13.04;100.00
12475;BME280;6302;42.624;23.334;2022-10-22T09:02:31;94049.06;;;13.18;100.00
12475;BME280;6302;42.624;23.334;2022-10-22T09:05:10;94050.91;;;13.25;100.00
12475;BME280;6302;42.624;23.334;2022-10-22T09:07:42;94050.44;;;13.40;100.00
12475;BME280;6302;42.624;23.334;2022-10-22T09:10:15;94041.72;;;13.36;100.00
12475;BME280;6302;42.624;23.334;2022-10-22T09:12:43;94040.47;;;13.51;100.00
12475;BME280;6302;42.624;23.334;2022-10-22T09:15:12;94046.91;;;13.57;100.00
12475;BME280;6302;42.624;23.334;2022-10-22T09:17:48;94036.63;;;13.56;100.00
12475;BME280;6302;42.624;23.334;2022-10-22T09:20:24;94028.84;;;13.76;100.00
12475;BME280;6302;42.624;23.334;2022-10-22T09:22:58;94039.06;;;13.84;99.71
12475;BME280;6302;42.624;23.334;2022-10-22T09:25:32;94015.97;;;13.70;98.81
12475;BME280;6302;42.624;23.334;2022-10-22T09:28:02;94020.00;;;13.86;98.13
12475;BME280;6302;42.624;23.334;2022-10-22T09:30:33;94032.81;;;14.01;97.23
12475;BME280;6302;42.624;23.334;2022-10-22T09:33:10;94036.53;;;14.11;96.66
12475;BME280;6302;42.624;23.334;2022-10-22T09:35:46;94026.16;;;14.20;95.62
12475;BME280;6302;42.624;23.334;2022-10-22T09:38:16;94014.34;;;14.21;95.04
12475;BME280;6302;42.624;23.334;2022-10-22T09:40:47;94026.06;;;14.34;93.51
12475;BME280;6302;42.624;23.334;2022-10-22T09:43:14;94017.63;;;14.39;93.47
12475;BME280;6302;42.624;23.334;2022-10-22T09:45:42;94015.69;;;14.40;92.78
12475;BME280;6302;42.624;23.334;2022-10-22T09:48:14;94009.47;;;14.53;93.77
12475;BME280;6302;42.624;23.334;2022-10-22T09:50:47;93996.00;;;14.64;94.79
12475;BME280;6302;42.624;23.334;2022-10-22T09:53:18;93990.41;;;14.81;90.77
12475;BME280;6302;42.624;23.334;2022-10-22T09:55:49;93988.03;;;14.90;90.56
12475;BME280;6302;42.624;23.334;2022-10-22T09:58:18;93989.41;;;15.02;89.23
12475;BME280;6302;42.624;23.334;2022-10-22T10:00:47;93973.69;;;15.08;88.37
12475;BME280;6302;42.624;23.334;2022-10-22T10:03:18;93995.25;;;15.20;86.70
12475;BME280;6302;42.624;23.334;2022-10-22T10:05:48;93992.22;;;15.18;87.02
12475;BME280;6302;42.624;23.334;2022-10-22T10:08:16;94000.41;;;15.31;86.51
12475;BME280;6302;42.624;23.334;2022-10-22T10:10:46;93993.75;;;15.46;87.69
12475;BME280;6302;42.624;23.334;2022-10-22T10:13:42;93985.16;;;15.58;85.56
12475;BME280;6302;42.624;23.334;2022-10-22T10:16:25;93982.59;;;15.51;84.28
12475;BME280;6302;42.624;23.334;2022-10-22T10:19:12;93972.16;;;15.60;83.72
12475;BME280;6302;42.624;23.334;2022-10-22T10:21:52;93984.00;;;15.59;84.50
12475;BME280;6302;42.624;23.334;2022-10-22T10:24:27;93982.25;;;15.72;85.70
12475;BME280;6302;42.624;23.334;2022-10-22T10:27:01;93962.00;;;15.75;85.35
12475;BME280;6302;42.624;23.334;2022-10-22T10:29:47;93988.03;;;16.13;80.60
12475;BME280;6302;42.624;23.334;2022-10-22T10:32:28;93957.56;;;16.07;79.78
12475;BME280;6302;42.624;23.334;2022-10-22T10:35:05;93958.97;;;16.15;79.98
12475;BME280;6302;42.624;23.334;2022-10-22T10:37:44;93954.38;;;16.16;79.10
12475;BME280;6302;42.624;23.334;2022-10-22T10:40:21;93914.72;;;15.91;80.05
12475;BME280;6302;42.624;23.334;2022-10-22T10:42:54;93944.44;;;16.16;81.50
12475;BME280;6302;42.624;23.334;2022-10-22T10:45:29;93953.41;;;16.46;79.49
12475;BME280;6302;42.624;23.334;2022-10-22T10:51:02;93937.44;;;16.62;78.42
12475;BME280;6302;42.624;23.334;2022-10-22T10:53:46;93933.38;;;16.73;76.97
12475;BME280;6302;42.624;23.334;2022-10-22T10:56:29;93934.16;;;16.90;78.10
12475;BME280;6302;42.624;23.334;2022-10-22T10:59:07;93931.66;;;16.99;76.76
12475;BME280;6302;42.624;23.334;2022-10-22T11:01:43;93904.22;;;16.95;76.26
12475;BME280;6302;42.624;23.334;2022-10-22T11:04:23;93902.41;;;17.08;76.37
12475;BME280;6302;42.624;23.334;2022-10-22T11:06:58;93910.25;;;17.31;77.71
12475;BME280;6302;42.624;23.334;2022-10-22T11:09:32;93902.31;;;17.44;75.66
12475;BME280;6302;42.624;23.334;2022-10-22T11:12:04;93897.38;;;17.59;72.94
12475;BME280;6302;42.624;23.334;2022-10-22T11:14:38;93902.16;;;17.67;72.84
12475;BME280;6302;42.624;23.334;2022-10-22T11:17:10;93893.50;;;17.76;72.90
12475;BME280;6302;42.624;23.334;2022-10-22T11:19:42;93896.84;;;17.80;71.88
12475;BME280;6302;42.624;23.334;2022-10-22T11:22:16;93890.88;;;17.88;68.82
12475;BME280;6302;42.624;23.334;2022-10-22T11:24:52;93881.09;;;17.82;70.70
12475;BME280;6302;42.624;23.334;2022-10-22T11:27:25;93873.03;;;17.82;70.92
12475;BME280;6302;42.624;23.334;2022-10-22T11:30:01;93869.41;;;17.88;70.08
12475;BME280;6302;42.624;23.334;2022-10-22T11:32:29;93864.75;;;18.05;70.20
12475;BME280;6302;42.624;23.334;2022-10-22T11:34:59;93857.13;;;18.03;68.99
12475;BME280;6302;42.624;23.334;2022-10-22T11:37:30;93847.97;;;18.17;68.79
12475;BME280;6302;42.624;23.334;2022-10-22T11:40:03;93854.59;;;18.25;67.02
12475;BME280;6302;42.624;23.334;2022-10-22T11:42:33;93850.09;;;18.35;65.71
12475;BME280;6302;42.624;23.334;2022-10-22T11:45:03;93852.38;;;18.36;64.79
12475;BME280;6302;42.624;23.334;2022-10-22T11:47:32;93850.22;;;18.31;64.19
12475;BME280;6302;42.624;23.334;2022-10-22T11:50:16;93852.44;;;18.20;63.90
12475;BME280;6302;42.624;23.334;2022-10-22T11:52:52;93839.59;;;18.28;65.44
12475;BME280;6302;42.624;23.334;2022-10-22T11:55:43;93845.63;;;18.32;63.70
12475;BME280;6302;42.624;23.334;2022-10-22T11:58:37;93840.13;;;18.35;65.47
12475;BME280;6302;42.624;23.334;2022-10-22T12:01:21;93835.44;;;18.52;64.29
12475;BME280;6302;42.624;23.334;2022-10-22T12:03:50;93840.72;;;18.55;62.60
12475;BME280;6302;42.624;23.334;2022-10-22T12:06:20;93842.78;;;18.51;64.92
12475;BME280;6302;42.624;23.334;2022-10-22T12:08:55;93831.81;;;18.58;63.48
12475;BME280;6302;42.624;23.334;2022-10-22T12:11:26;93835.44;;;18.52;64.82
12475;BME280;6302;42.624;23.334;2022-10-22T12:14:15;93829.44;;;18.60;66.14
12475;BME280;6302;42.624;23.334;2022-10-22T12:16:45;93823.88;;;18.67;63.82
12475;BME280;6302;42.624;23.334;2022-10-22T12:19:16;93824.09;;;18.73;64.14
12475;BME280;6302;42.624;23.334;2022-10-22T12:21:47;93821.09;;;18.83;64.12
12475;BME280;6302;42.624;23.334;2022-10-22T12:24:18;93816.66;;;18.90;63.61
12475;BME280;6302;42.624;23.334;2022-10-22T12:26:47;93808.38;;;18.97;63.43
12475;BME280;6302;42.624;23.334;2022-10-22T12:29:18;93816.75;;;18.99;62.45
12475;BME280;6302;42.624;23.334;2022-10-22T12:31:47;93806.00;;;18.99;63.43
12475;BME280;6302;42.624;23.334;2022-10-22T12:34:15;93811.69;;;19.13;62.54
12475;BME280;6302;42.624;23.334;2022-10-22T12:36:43;93809.44;;;19.12;60.83
12475;BME280;6302;42.624;23.334;2022-10-22T12:39:14;93811.72;;;19.01;62.41
12475;BME280;6302;42.624;23.334;2022-10-22T12:41:42;93815.66;;;19.09;61.81
12475;BME280;6302;42.624;23.334;2022-10-22T12:44:13;93800.31;;;18.97;62.75
12475;BME280;6302;42.624;23.334;2022-10-22T12:46:41;93810.75;;;18.95;63.28
12475;BME280;6302;42.624;23.334;2022-10-22T12:49:14;93795.16;;;19.02;62.68
12475;BME280;6302;42.624;23.334;2022-10-22T12:51:43;93796.44;;;19.10;63.48
12475;BME280;6302;42.624;23.334;2022-10-22T12:54:18;93807.72;;;19.18;64.25
12475;BME280;6302;42.624;23.334;2022-10-22T12:56:48;93803.28;;;19.24;61.62
12475;BME280;6302;42.624;23.334;2022-10-22T12:59:22;93794.88;;;19.34;60.40
12475;BME280;6302;42.624;23.334;2022-10-22T13:01:50;93791.22;;;19.28;61.68
12475;BME280;6302;42.624;23.334;2022-10-22T13:04:31;93791.97;;;19.29;62.37
12475;BME280;6302;42.624;23.334;2022-10-22T13:07:16;93787.13;;;19.36;60.87
12475;BME280;6302;42.624;23.334;2022-10-22T13:09:44;93787.03;;;19.27;59.90
12475;BME280;6302;42.624;23.334;2022-10-22T13:12:12;93783.38;;;19.21;62.42
12475;BME280;6302;42.624;23.334;2022-10-22T13:14:43;93778.56;;;19.16;60.68
12475;BME280;6302;42.624;23.334;2022-10-22T13:17:13;93783.59;;;19.27;61.67
12475;BME280;6302;42.624;23.334;2022-10-22T13:19:49;93781.78;;;19.36;62.62